createdAt,value
2018-04-13T00:01:18.677Z,10.90
2018-04-13T00:03:52.141Z,10.90
2018-04-13T00:06:27.679Z,10.90
2018-04-13T00:09:02.424Z,10.80
2018-04-13T00:11:37.920Z,10.80
2018-04-13T00:14:12.639Z,10.80
2018-04-13T00:16:47.393Z,10.80
2018-04-13T00:19:21.158Z,10.80
2018-04-13T00:21:55.880Z,10.80
2018-04-13T00:24:30.575Z,10.90
2018-04-13T00:27:05.145Z,11.00
2018-04-13T00:29:39.865Z,10.90
2018-04-13T00:32:14.601Z,11.00
2018-04-13T00:34:48.362Z,11.10
2018-04-13T00:37:23.097Z,11.10
2018-04-13T00:39:57.629Z,11.00
2018-04-13T00:42:32.305Z,11.00
2018-04-13T00:45:07.003Z,11.00
2018-04-13T00:47:41.717Z,11.00
2018-04-13T00:50:15.496Z,11.00
2018-04-13T00:53:01.496Z,11.10
2018-04-13T00:55:35.258Z,11.00
2018-04-13T00:58:09.775Z,11.00
2018-04-13T01:00:43.548Z,11.00
2018-04-13T01:03:17.302Z,11.00
2018-04-13T01:05:52.768Z,11.10
2018-04-13T01:08:27.497Z,11.00
2018-04-13T01:11:01.254Z,11.00
2018-04-13T01:13:35.803Z,11.00
2018-04-13T01:16:09.574Z,11.00
2018-04-13T01:18:43.330Z,10.90
2018-04-13T01:21:17.089Z,11.00
2018-04-13T01:23:51.639Z,11.00
2018-04-13T01:26:25.400Z,11.00
2018-04-13T01:28:59.161Z,11.10
2018-04-13T01:31:33.861Z,11.20
2018-04-13T01:34:08.555Z,11.20
2018-04-13T01:36:43.318Z,11.20
2018-04-13T01:39:18.039Z,11.10
2018-04-13T01:41:51.796Z,11.10
2018-04-13T01:44:25.555Z,11.10
2018-04-13T01:47:00.361Z,11.00
2018-04-13T01:49:35.839Z,11.00
2018-04-13T01:52:10.570Z,11.00
2018-04-13T01:54:45.312Z,10.90
2018-04-13T01:57:19.051Z,10.90
2018-04-13T01:59:52.716Z,10.90
2018-04-13T02:02:26.436Z,10.90
2018-04-13T02:05:00.105Z,10.80
2018-04-13T02:07:34.742Z,10.90
2018-04-13T02:10:08.404Z,10.80
2018-04-13T02:12:42.832Z,10.70
2018-04-13T02:15:16.182Z,10.70
2018-04-13T02:17:49.644Z,10.70
2018-04-13T02:20:23.317Z,10.70
2018-04-13T02:22:57.745Z,10.80
2018-04-13T02:25:31.407Z,10.80
2018-04-13T02:28:04.744Z,10.90
2018-04-13T02:30:38.440Z,10.90
2018-04-13T02:33:13.094Z,10.90
2018-04-13T02:35:47.740Z,11.00
2018-04-13T02:38:21.439Z,11.00
2018-04-13T02:40:55.111Z,11.00
2018-04-13T02:43:30.517Z,11.30
2018-04-13T02:46:04.630Z,11.30
2018-04-13T02:48:39.885Z,11.30
2018-04-13T02:51:14.509Z,11.30
2018-04-13T02:53:48.197Z,11.30
2018-04-13T02:56:22.620Z,11.30
2018-04-13T02:58:56.291Z,11.30
2018-04-13T03:01:29.951Z,11.30
2018-04-13T03:04:04.600Z,11.30
2018-04-13T03:06:39.223Z,11.30
2018-04-13T03:09:12.898Z,11.40
2018-04-13T03:11:46.624Z,11.50
2018-04-13T03:14:20.300Z,11.50
2018-04-13T03:16:53.972Z,11.60
2018-04-13T03:19:28.435Z,11.60
2018-04-13T03:22:03.727Z,11.60
2018-04-13T03:24:37.427Z,11.60
2018-04-13T03:27:11.856Z,11.70
2018-04-13T03:29:45.535Z,11.70
2018-04-13T03:32:19.862Z,11.70
2018-04-13T03:34:55.312Z,11.70
2018-04-13T03:37:30.714Z,11.70
2018-04-13T03:40:04.075Z,11.70
2018-04-13T03:42:38.736Z,11.60
2018-04-13T03:45:12.426Z,11.60
2018-04-13T03:47:47.111Z,11.60
2018-04-13T03:50:20.785Z,11.60
2018-04-13T03:52:55.215Z,11.70
2018-04-13T03:55:30.593Z,11.70
2018-04-13T03:58:04.253Z,11.60
2018-04-13T04:00:38.697Z,11.70
2018-04-13T04:03:13.344Z,11.60
2018-04-13T04:05:48.945Z,11.60
2018-04-13T04:08:22.621Z,11.70
2018-04-13T04:10:56.343Z,11.60
2018-04-13T04:13:30.152Z,11.50
2018-04-13T04:16:04.576Z,11.50
2018-04-13T04:18:39.014Z,11.50
2018-04-13T04:21:23.843Z,11.50
2018-04-13T04:24:08.847Z,11.50
2018-04-13T04:26:47.907Z,11.60
2018-04-13T04:29:21.583Z,11.60
2018-04-13T04:31:55.251Z,11.60
2018-04-13T04:34:29.686Z,11.60
2018-04-13T04:37:03.356Z,11.70
2018-04-13T04:39:37.892Z,11.70
2018-04-13T04:42:12.316Z,11.70
2018-04-13T04:44:46.913Z,11.70
2018-04-13T04:47:20.568Z,11.70
2018-04-13T04:49:54.230Z,11.70
2018-04-13T04:52:28.669Z,11.70
2018-04-13T04:55:02.336Z,11.70
2018-04-13T04:57:37.755Z,11.70
2018-04-13T05:00:12.336Z,11.70
2018-04-13T05:02:47.513Z,11.70
2018-04-13T05:05:25.968Z,11.70
2018-04-13T05:08:01.360Z,11.70
2018-04-13T05:10:36.277Z,11.70
2018-04-13T05:13:09.960Z,11.70
2018-04-13T05:15:43.631Z,11.80
2018-04-13T05:18:18.066Z,11.80
2018-04-13T05:20:52.502Z,11.80
2018-04-13T05:23:26.172Z,11.80
2018-04-13T05:26:00.613Z,11.90
2018-04-13T05:28:34.289Z,11.80
2018-04-13T05:31:07.968Z,11.90
2018-04-13T05:33:41.668Z,11.90
2018-04-13T05:36:15.335Z,11.90
2018-04-13T05:38:49.005Z,11.90
2018-04-13T05:41:24.353Z,12.00
2018-04-13T05:43:58.780Z,12.10
2018-04-13T05:46:33.420Z,12.00
2018-04-13T05:49:08.141Z,12.10
2018-04-13T05:51:41.812Z,12.10
2018-04-13T05:54:16.413Z,12.10
2018-04-13T05:56:51.040Z,12.20
2018-04-13T05:59:25.734Z,12.20
2018-04-13T06:02:00.359Z,12.30
2018-04-13T06:04:34.951Z,12.30
2018-04-13T06:07:09.355Z,12.40
2018-04-13T06:09:46.325Z,12.40
2018-04-13T06:12:22.350Z,12.50
2018-04-13T06:14:56.322Z,12.50
2018-04-13T06:17:33.638Z,12.50
2018-04-13T06:20:11.593Z,12.50
2018-04-13T06:22:45.316Z,12.60
2018-04-13T06:25:18.979Z,12.70
2018-04-13T06:27:54.358Z,12.90
2018-04-13T06:30:29.016Z,12.90
2018-04-13T06:33:02.682Z,13.00
2018-04-13T06:35:36.401Z,13.10
2018-04-13T06:38:11.952Z,13.30
2018-04-13T06:40:45.637Z,13.30
2018-04-13T06:43:19.311Z,13.40
2018-04-13T06:45:53.923Z,13.50
2018-04-13T06:48:28.062Z,13.50
2018-04-13T06:51:01.770Z,13.50
2018-04-13T06:53:35.731Z,13.50
2018-04-13T06:56:10.335Z,13.60
2018-04-13T06:58:44.021Z,13.80
2018-04-13T07:01:17.711Z,14.10
2018-04-13T07:03:51.400Z,14.10
2018-04-13T07:06:26.064Z,14.40
2018-04-13T07:09:00.720Z,14.50
2018-04-13T07:11:36.113Z,14.80
2018-04-13T07:14:10.738Z,14.80
2018-04-13T07:16:44.072Z,14.90
2018-04-13T07:19:19.545Z,15.20
2018-04-13T07:21:54.374Z,15.20
2018-04-13T07:24:28.043Z,15.10
2018-04-13T07:27:03.416Z,14.90
2018-04-13T07:29:36.867Z,14.90
2018-04-13T07:32:10.557Z,15.10
2018-04-13T07:34:44.253Z,15.40
2018-04-13T07:37:17.927Z,15.70
2018-04-13T07:39:51.610Z,15.80
2018-04-13T07:42:25.477Z,15.80
2018-04-13T07:44:59.162Z,15.70
2018-04-13T07:47:33.058Z,15.20
2018-04-13T07:50:07.314Z,15.40
2018-04-13T07:52:41.848Z,15.50
2018-04-13T07:55:16.288Z,15.80
2018-04-13T07:57:49.953Z,15.80
2018-04-13T08:00:23.623Z,16.00
2018-04-13T08:02:58.435Z,16.10
2018-04-13T08:05:33.145Z,16.20
2018-04-13T08:08:06.956Z,16.30
2018-04-13T08:10:41.586Z,16.40
2018-04-13T08:13:15.455Z,16.30
2018-04-13T08:15:49.165Z,16.40
2018-04-13T08:18:22.833Z,16.30
2018-04-13T08:20:56.535Z,16.20
2018-04-13T08:23:30.206Z,16.10
2018-04-13T08:26:04.903Z,16.30
2018-04-13T08:28:38.576Z,16.20
2018-04-13T08:31:14.005Z,15.90
2018-04-13T08:33:48.592Z,15.90
2018-04-13T08:36:23.182Z,15.90
2018-04-13T08:38:58.643Z,16.00
2018-04-13T08:41:32.505Z,16.00
2018-04-13T08:44:06.190Z,16.20
2018-04-13T08:46:41.026Z,16.40
2018-04-13T08:49:15.764Z,16.70
2018-04-13T08:51:50.433Z,16.70
2018-04-13T08:54:24.111Z,17.30
2018-04-13T08:56:57.797Z,17.70
2018-04-13T08:59:33.185Z,17.30
2018-04-13T09:02:07.775Z,17.40
2018-04-13T09:04:41.445Z,17.40
2018-04-13T09:07:15.124Z,17.00
2018-04-13T09:09:48.823Z,16.60
2018-04-13T09:12:23.457Z,16.60
2018-04-13T09:14:58.092Z,16.60
2018-04-13T09:17:31.768Z,16.60
2018-04-13T09:20:06.419Z,16.50
2018-04-13T09:22:40.101Z,16.40
2018-04-13T09:25:13.456Z,16.20
2018-04-13T09:27:48.120Z,16.40
2018-04-13T09:30:22.784Z,16.80
2018-04-13T09:32:57.223Z,17.50
2018-04-13T09:35:30.940Z,17.50
2018-04-13T09:38:05.751Z,17.60
2018-04-13T09:40:39.415Z,17.70
2018-04-13T09:43:13.665Z,17.80
2018-04-13T09:45:48.877Z,18.10
2018-04-13T09:48:23.119Z,18.40
2018-04-13T09:50:57.377Z,18.40
2018-04-13T09:53:32.561Z,18.80
2018-04-13T09:56:07.588Z,19.00
2018-04-13T09:58:42.763Z,19.00
2018-04-13T10:01:17.577Z,18.50
2018-04-13T10:03:57.216Z,18.50
2018-04-13T10:06:31.460Z,18.70
2018-04-13T10:09:06.737Z,19.30
2018-04-13T10:11:40.972Z,20.20
2018-04-13T10:14:15.229Z,21.30
2018-04-13T10:16:50.383Z,21.40
2018-04-13T10:19:24.633Z,22.50
2018-04-13T10:21:58.866Z,23.20
2018-04-13T10:24:34.059Z,23.00
2018-04-13T10:27:08.304Z,22.60
2018-04-13T10:29:42.549Z,23.00
2018-04-13T10:32:16.803Z,22.60
2018-04-13T10:34:52.061Z,22.00
2018-04-13T10:37:27.220Z,21.30
2018-04-13T10:40:01.464Z,20.80
2018-04-13T10:42:36.643Z,20.20
2018-04-13T10:45:11.929Z,20.40
2018-04-13T10:47:46.920Z,20.40
2018-04-13T10:50:22.156Z,20.40
2018-04-13T10:52:56.398Z,20.20
2018-04-13T10:55:30.639Z,20.30
2018-04-13T10:58:06.615Z,21.30
2018-04-13T11:00:40.868Z,21.30
2018-04-13T11:03:15.099Z,21.70
2018-04-13T11:05:51.332Z,21.70
2018-04-13T11:08:25.571Z,21.80
2018-04-13T11:11:00.553Z,21.70
2018-04-13T11:13:35.766Z,22.30
2018-04-13T11:16:10.016Z,22.40
2018-04-13T11:18:44.256Z,22.20
2018-04-13T11:21:18.505Z,22.10
2018-04-13T11:23:55.308Z,22.30
2018-04-13T11:26:30.325Z,21.70
2018-04-13T11:29:05.545Z,21.70
2018-04-13T11:31:40.561Z,21.80
2018-04-13T11:34:14.802Z,21.80
2018-04-13T11:36:49.871Z,21.60
2018-04-13T11:39:24.123Z,21.10
2018-04-13T11:41:58.367Z,21.10
2018-04-13T11:44:38.876Z,21.00
2018-04-13T11:47:13.112Z,21.20
2018-04-13T11:49:48.773Z,21.70
2018-04-13T11:52:23.776Z,21.40
2018-04-13T11:54:58.025Z,21.40
2018-04-13T11:57:32.947Z,21.30
2018-04-13T12:00:07.955Z,21.90
2018-04-13T12:02:43.143Z,21.80
2018-04-13T12:05:18.387Z,22.10
2018-04-13T12:07:53.633Z,22.00
2018-04-13T12:10:27.877Z,21.90
2018-04-13T12:13:02.126Z,21.90
2018-04-13T12:15:37.128Z,21.80
2018-04-13T12:18:12.318Z,21.80
2018-04-13T12:20:46.547Z,22.00
2018-04-13T12:23:20.783Z,22.20
2018-04-13T12:25:55.034Z,22.30
2018-04-13T12:28:30.249Z,22.30
2018-04-13T12:31:04.526Z,21.70
2018-04-13T12:33:39.508Z,21.70
2018-04-13T12:36:14.720Z,21.60
2018-04-13T12:38:52.780Z,21.30
2018-04-13T12:41:28.941Z,21.10
2018-04-13T12:44:03.329Z,21.50
2018-04-13T12:46:41.398Z,21.50
2018-04-13T12:49:17.655Z,21.60
2018-04-13T12:51:52.024Z,21.70
2018-04-13T12:54:28.034Z,21.60
2018-04-13T12:57:03.422Z,21.60
2018-04-13T12:59:39.425Z,21.50
2018-04-13T13:02:14.353Z,21.50
2018-04-13T13:04:48.591Z,21.50
2018-04-13T13:07:23.829Z,21.20
2018-04-13T13:09:58.065Z,21.00
2018-04-13T13:12:33.247Z,20.80
2018-04-13T13:15:07.491Z,20.60
2018-04-13T13:17:41.544Z,20.60
2018-04-13T13:20:17.321Z,20.40
2018-04-13T13:22:52.549Z,20.30
2018-04-13T13:25:28.628Z,20.30
2018-04-13T13:28:02.888Z,20.30
2018-04-13T13:30:37.167Z,20.40
2018-04-13T13:33:11.407Z,20.30
2018-04-13T13:35:46.937Z,20.20
2018-04-13T13:38:22.221Z,20.20
2018-04-13T13:40:59.279Z,20.20
2018-04-13T13:43:35.383Z,19.80
2018-04-13T13:46:09.391Z,19.80
2018-04-13T13:48:43.626Z,19.70
2018-04-13T13:51:18.770Z,19.60
2018-04-13T13:53:53.088Z,19.60
2018-04-13T13:59:18.835Z,19.50
2018-04-13T14:01:53.066Z,19.40
2018-04-13T14:04:27.316Z,19.30
2018-04-13T14:07:01.552Z,19.30
2018-04-13T14:09:35.820Z,19.30
2018-04-13T14:12:11.046Z,19.40
2018-04-13T14:14:46.305Z,19.40
2018-04-13T14:17:20.705Z,19.40
2018-04-13T14:19:55.709Z,19.50
2018-04-13T14:22:29.933Z,19.50
2018-04-13T14:25:04.166Z,19.30
2018-04-13T14:27:38.597Z,19.10
2018-04-13T14:30:13.593Z,19.00
2018-04-13T14:32:47.840Z,18.90
2018-04-13T14:35:22.125Z,19.10
2018-04-13T14:37:56.380Z,19.20
2018-04-13T14:40:31.392Z,19.30
2018-04-13T14:43:05.637Z,19.30
2018-04-13T14:45:39.880Z,19.30
2018-04-13T14:48:14.112Z,19.30
2018-04-13T14:50:48.384Z,19.20
2018-04-13T14:53:22.612Z,19.10
2018-04-13T14:55:57.526Z,19.10
2018-04-13T14:58:32.292Z,19.10
2018-04-13T15:01:06.210Z,19.10
2018-04-13T15:03:40.444Z,19.10
2018-04-13T15:06:15.457Z,18.70
2018-04-13T15:08:50.671Z,18.70
2018-04-13T15:11:24.896Z,18.60
2018-04-13T15:13:59.148Z,18.30
2018-04-13T15:16:34.167Z,17.90
2018-04-13T15:19:08.407Z,17.90
2018-04-13T15:21:43.668Z,17.80
2018-04-13T15:24:17.385Z,17.70
2018-04-13T15:26:51.060Z,17.40
2018-04-13T15:29:24.732Z,17.20
2018-04-13T15:31:58.428Z,17.10
2018-04-13T15:34:32.096Z,17.00
2018-04-13T15:37:07.379Z,17.00
2018-04-13T15:39:41.995Z,17.00
2018-04-13T15:42:16.617Z,16.80
2018-04-13T15:44:50.288Z,16.60
2018-04-13T15:47:25.696Z,16.50
2018-04-13T15:49:59.375Z,16.50
2018-04-13T15:52:33.046Z,16.50
2018-04-13T15:55:06.725Z,16.40
2018-04-13T15:57:41.178Z,16.10
2018-04-13T16:00:14.852Z,16.10
2018-04-13T16:02:50.225Z,15.80
2018-04-13T16:05:23.899Z,15.80
2018-04-13T16:07:58.392Z,15.70
2018-04-13T16:10:32.075Z,15.60
2018-04-13T16:13:06.483Z,15.60
2018-04-13T16:15:40.150Z,15.50
2018-04-13T16:18:14.310Z,15.40
2018-04-13T16:20:47.980Z,15.30
2018-04-13T16:23:22.572Z,15.20
2018-04-13T16:25:58.001Z,15.10
2018-04-13T16:28:31.675Z,15.00
2018-04-13T16:31:05.334Z,15.10
2018-04-13T16:33:39.020Z,15.00
2018-04-13T16:36:13.457Z,14.90
2018-04-13T16:38:47.131Z,14.90
2018-04-13T16:41:21.566Z,14.80
2018-04-13T16:43:55.814Z,14.70
2018-04-13T16:46:30.464Z,14.60
2018-04-13T16:49:03.810Z,14.60
2018-04-13T16:51:37.489Z,14.50
2018-04-13T16:54:12.878Z,14.40
2018-04-13T16:56:47.888Z,14.40
2018-04-13T16:59:22.525Z,14.30
2018-04-13T17:01:57.214Z,14.20
2018-04-13T17:04:31.655Z,14.00
2018-04-13T17:07:05.325Z,14.00
2018-04-13T17:09:39.963Z,14.00
2018-04-13T17:12:13.644Z,13.90
2018-04-13T17:14:48.291Z,13.80
2018-04-13T17:17:22.716Z,13.50
2018-04-13T17:19:57.308Z,13.50
2018-04-13T17:22:30.648Z,13.40
2018-04-13T17:25:04.325Z,13.20
2018-04-13T17:27:38.084Z,13.10
2018-04-13T17:30:11.751Z,12.80
2018-04-13T17:32:45.477Z,12.80
2018-04-13T17:35:19.171Z,12.60
2018-04-13T17:37:53.819Z,12.40
2018-04-13T17:40:28.490Z,12.30
2018-04-13T17:43:03.204Z,12.20
2018-04-13T17:45:47.364Z,12.00
2018-04-13T17:48:40.953Z,11.90
2018-04-13T17:51:16.292Z,11.90
2018-04-13T17:53:51.193Z,11.90
2018-04-13T17:56:25.653Z,11.90
2018-04-13T17:59:00.313Z,11.80
2018-04-13T18:01:34.011Z,11.80
2018-04-13T18:04:07.693Z,11.80
2018-04-13T18:06:41.386Z,11.80
2018-04-13T18:09:16.175Z,11.80
2018-04-13T18:11:50.803Z,11.80
2018-04-13T18:14:24.488Z,11.70
2018-04-13T18:16:59.133Z,11.80
2018-04-13T18:19:33.803Z,11.80
2018-04-13T18:22:08.450Z,11.70
2018-04-13T18:24:42.139Z,11.70
2018-04-13T18:27:15.813Z,11.70
2018-04-13T18:29:50.448Z,11.70
2018-04-13T18:32:24.115Z,11.60
2018-04-13T18:34:58.656Z,11.60
2018-04-13T18:37:33.297Z,11.50
2018-04-13T18:40:07.962Z,11.50
2018-04-13T18:42:41.642Z,11.50
2018-04-13T18:45:15.326Z,11.50
2018-04-13T18:47:49.963Z,11.50
2018-04-13T18:50:24.047Z,11.50
2018-04-13T18:52:57.713Z,11.30
2018-04-13T18:55:32.000Z,11.20
2018-04-13T18:58:05.706Z,11.10
2018-04-13T19:00:39.527Z,11.10
2018-04-13T19:03:13.217Z,11.10
2018-04-13T19:05:47.688Z,11.10
2018-04-13T19:08:21.355Z,11.10
2018-04-13T19:10:54.705Z,11.10
2018-04-13T19:13:28.563Z,11.10
2018-04-13T19:16:02.256Z,11.00
2018-04-13T19:18:36.843Z,11.00
2018-04-13T19:21:10.514Z,11.00
2018-04-13T19:23:44.182Z,11.00
2018-04-13T19:26:17.882Z,11.00
2018-04-13T19:28:52.514Z,11.10
2018-04-13T19:31:27.131Z,11.10
2018-04-13T19:34:00.793Z,11.10
2018-04-13T19:36:34.459Z,11.10
2018-04-13T19:39:09.044Z,11.10
2018-04-13T19:41:43.712Z,11.10
2018-04-13T19:44:17.392Z,11.10
2018-04-13T19:46:51.092Z,11.10
2018-04-13T19:49:24.767Z,11.10
2018-04-13T19:52:00.180Z,11.10
2018-04-13T19:54:34.813Z,11.10
2018-04-13T19:57:09.461Z,11.10
2018-04-13T19:59:43.897Z,11.20
2018-04-13T20:02:18.535Z,11.20
2018-04-13T20:04:53.174Z,11.20
2018-04-13T20:07:27.825Z,11.20
2018-04-13T20:10:01.547Z,11.20
2018-04-13T20:12:35.985Z,11.20
2018-04-13T20:15:09.323Z,11.20
2018-04-13T20:17:43.973Z,11.10
2018-04-13T20:20:19.331Z,11.00
2018-04-13T20:22:53.770Z,11.00
2018-04-13T20:25:27.472Z,11.00
2018-04-13T20:28:01.860Z,11.00
2018-04-13T20:30:36.315Z,11.00
2018-04-13T20:33:10.965Z,11.00
2018-04-13T20:35:45.620Z,11.00
2018-04-13T20:38:20.272Z,11.00
2018-04-13T20:40:53.940Z,11.00
2018-04-13T20:43:27.599Z,11.00
2018-04-13T20:46:13.115Z,10.90
2018-04-13T20:48:48.103Z,10.90
2018-04-13T20:51:22.115Z,10.90
2018-04-13T20:53:56.452Z,10.90
2018-04-13T20:56:30.194Z,10.90
2018-04-13T20:59:03.864Z,10.90
2018-04-13T21:01:37.555Z,10.90
2018-04-13T21:04:12.184Z,10.90
2018-04-13T21:06:46.323Z,10.70
2018-04-13T21:09:19.717Z,10.60
2018-04-13T21:11:54.988Z,10.60
2018-04-13T21:14:28.671Z,10.60
2018-04-13T21:17:12.479Z,10.40
2018-04-13T21:19:48.892Z,10.40
2018-04-13T21:22:23.535Z,10.30
2018-04-13T21:24:57.359Z,10.20
2018-04-13T21:27:31.029Z,10.10
2018-04-13T21:30:04.041Z,10.00
2018-04-13T21:32:38.692Z,10.00
2018-04-13T21:35:12.384Z,10.00
2018-04-13T21:37:46.055Z,9.90
2018-04-13T21:40:19.721Z,9.90
2018-04-13T21:42:55.132Z,9.80
2018-04-13T21:45:28.799Z,9.70
2018-04-13T21:48:04.295Z,9.70
2018-04-13T21:50:37.951Z,9.60
2018-04-13T21:53:13.759Z,9.60
2018-04-13T21:55:49.119Z,9.50
2018-04-13T21:58:23.708Z,9.50
2018-04-13T22:00:57.369Z,9.50
2018-04-13T22:03:31.967Z,9.50
2018-04-13T22:06:05.645Z,9.40
2018-04-13T22:08:40.077Z,9.30
2018-04-13T22:11:14.691Z,9.30
2018-04-13T22:13:48.481Z,9.10
2018-04-13T22:16:23.064Z,9.10
2018-04-13T22:18:57.673Z,9.00
2018-04-13T22:21:32.260Z,9.00
2018-04-13T22:24:06.701Z,8.90
2018-04-13T22:26:40.433Z,8.90
2018-04-13T22:29:14.183Z,8.90
2018-04-13T22:31:48.612Z,8.90
2018-04-13T22:34:22.279Z,8.90
2018-04-13T22:36:55.944Z,8.90
2018-04-13T22:39:29.612Z,8.90
2018-04-13T22:42:04.247Z,8.90
2018-04-13T22:44:37.933Z,9.00
2018-04-13T22:47:13.296Z,9.00
2018-04-13T22:49:47.943Z,9.00
2018-04-13T22:52:22.556Z,9.00
2018-04-13T22:54:56.220Z,9.00
2018-04-13T22:57:31.637Z,9.10
2018-04-13T23:00:05.375Z,9.10
2018-04-13T23:02:39.192Z,9.10
2018-04-13T23:05:12.562Z,9.20
2018-04-13T23:07:47.939Z,9.30
2018-04-13T23:10:21.611Z,9.30
2018-04-13T23:12:56.240Z,9.20
2018-04-13T23:15:30.878Z,9.20
2018-04-13T23:18:04.268Z,9.30
2018-04-13T23:20:46.034Z,9.30
2018-04-13T23:23:22.791Z,9.30
2018-04-13T23:25:56.516Z,9.30
2018-04-13T23:28:31.875Z,9.30
2018-04-13T23:31:05.538Z,9.30
2018-04-13T23:33:39.197Z,9.30
2018-04-13T23:36:12.867Z,9.20
2018-04-13T23:38:47.467Z,9.30
2018-04-13T23:41:21.911Z,9.30
2018-04-13T23:43:55.572Z,9.30
2018-04-13T23:46:29.245Z,9.30
2018-04-13T23:49:02.906Z,9.30
2018-04-13T23:51:37.553Z,9.30
2018-04-13T23:54:11.216Z,9.20
2018-04-13T23:56:44.892Z,9.20
2018-04-13T23:59:19.236Z,9.20
